createdAt,value
2023-04-27T00:00:58.129Z,99974.62
2023-04-27T00:05:14.679Z,99976.56
2023-04-27T00:09:31.073Z,99983.13
2023-04-27T00:13:47.402Z,99978.19
2023-04-27T00:18:03.823Z,99981.06
2023-04-27T00:22:20.339Z,99980.56
2023-04-27T00:26:36.566Z,99978.06
2023-04-27T00:30:54.866Z,99973.28
2023-04-27T00:35:11.639Z,99969.75
2023-04-27T00:39:27.901Z,99977.22
2023-04-27T00:43:45.958Z,99976.81
2023-04-27T00:48:02.414Z,99984.09
2023-04-27T00:52:19.008Z,99980.16
2023-04-27T00:56:35.381Z,99981.72
2023-04-27T01:00:52.137Z,99978.09
2023-04-27T01:05:09.701Z,99981.66
2023-04-27T01:09:26.072Z,99987.19
2023-04-27T01:13:42.334Z,99991.41
2023-04-27T01:18:02.192Z,99993.47
2023-04-27T01:22:18.785Z,99998.66
2023-04-27T01:26:35.190Z,99994.16
2023-04-27T01:30:51.551Z,99994.63
2023-04-27T01:35:08.184Z,99999.94
2023-04-27T01:39:24.444Z,100017.31
2023-04-27T01:43:42.311Z,100009.63
2023-04-27T01:47:58.679Z,100011.03
2023-04-27T01:52:15.012Z,100010.13
2023-04-27T01:56:31.304Z,100006.56
2023-04-27T02:00:47.521Z,100014.84
2023-04-27T02:05:04.686Z,100027.31
2023-04-27T02:09:21.230Z,100020.81
2023-04-27T02:13:37.530Z,100023.66
2023-04-27T02:17:53.936Z,100029.06
2023-04-27T02:22:10.259Z,100031.03
2023-04-27T02:26:29.764Z,100031.16
2023-04-27T02:30:46.385Z,100035.38
2023-04-27T02:35:03.005Z,100035.88
2023-04-27T02:39:19.327Z,100041.38
2023-04-27T02:43:35.655Z,100038.44
2023-04-27T02:47:52.077Z,100040.31
2023-04-27T02:52:08.492Z,100046.31
2023-04-27T02:56:24.911Z,100046.19
2023-04-27T03:00:41.766Z,100051.50
2023-04-27T03:04:59.473Z,100057.59
2023-04-27T03:09:16.084Z,100048.09
2023-04-27T03:13:41.546Z,100056.53
2023-04-27T03:17:57.977Z,100063.31
2023-04-27T03:22:14.343Z,100056.22
2023-04-27T03:26:30.578Z,100064.34
2023-04-27T03:30:46.999Z,100069.28
2023-04-27T03:35:03.603Z,100084.66
2023-04-27T03:39:20.127Z,100084.37
2023-04-27T03:43:36.607Z,100094.00
2023-04-27T03:47:52.977Z,100092.25
2023-04-27T03:52:09.251Z,100096.06
2023-04-27T03:56:25.601Z,100107.66
2023-04-27T04:00:42.076Z,100103.53
2023-04-27T04:04:58.368Z,100110.12
2023-04-27T04:09:14.989Z,100108.37
2023-04-27T04:13:31.919Z,100104.87
2023-04-27T04:17:49.538Z,100114.50
2023-04-27T04:22:05.834Z,100118.91
2023-04-27T04:26:23.805Z,100121.09
2023-04-27T04:30:40.686Z,100116.62
2023-04-27T04:34:57.253Z,100127.75
2023-04-27T04:39:14.076Z,100124.78
2023-04-27T04:43:30.897Z,100127.53
2023-04-27T04:47:47.504Z,100130.75
2023-04-27T04:52:06.787Z,100133.91
2023-04-27T04:56:23.205Z,100127.69
2023-04-27T05:00:39.604Z,100125.34
2023-04-27T05:04:57.808Z,100129.19
2023-04-27T05:09:14.493Z,100129.13
2023-04-27T05:13:31.461Z,100132.47
2023-04-27T05:17:47.772Z,100131.84
2023-04-27T05:22:04.149Z,100136.91
2023-04-27T05:26:21.410Z,100133.13
2023-04-27T05:30:38.242Z,100142.31
2023-04-27T05:34:54.499Z,100145.44
2023-04-27T05:39:11.664Z,100149.59
2023-04-27T05:43:28.110Z,100157.03
2023-04-27T05:47:44.566Z,100151.59
2023-04-27T05:52:01.113Z,100147.81
2023-04-27T05:56:17.398Z,100153.25
2023-04-27T06:00:33.905Z,100157.00
2023-04-27T06:04:50.231Z,100157.44
2023-04-27T06:09:06.744Z,100155.09
2023-04-27T06:13:23.276Z,100157.25
2023-04-27T06:17:40.008Z,100160.69
2023-04-27T06:21:56.521Z,100169.00
2023-04-27T06:26:12.857Z,100169.06
2023-04-27T06:30:29.167Z,100172.37
2023-04-27T06:34:45.420Z,100169.97
2023-04-27T06:39:01.895Z,100176.09
2023-04-27T06:43:18.130Z,100183.53
2023-04-27T06:47:34.586Z,100173.97
2023-04-27T06:51:51.238Z,100189.75
2023-04-27T06:56:12.136Z,100189.84
2023-04-27T07:00:28.510Z,100191.62
2023-04-27T07:04:45.120Z,100185.44
2023-04-27T07:09:01.406Z,100180.97
2023-04-27T07:13:17.724Z,100186.84
2023-04-27T07:17:34.271Z,100183.25
2023-04-27T07:21:50.798Z,100188.22
2023-04-27T07:26:08.000Z,100192.38
2023-04-27T07:30:24.843Z,100187.19
2023-04-27T07:34:52.053Z,100195.00
2023-04-27T07:39:09.417Z,100191.75
2023-04-27T07:43:26.059Z,100191.62
2023-04-27T07:47:42.709Z,100184.97
2023-04-27T07:51:59.196Z,100185.84
2023-04-27T07:56:15.779Z,100182.00
2023-04-27T08:00:32.389Z,100185.34
2023-04-27T08:04:50.164Z,100181.22
2023-04-27T08:09:06.673Z,100176.16
2023-04-27T08:13:24.793Z,100184.91
2023-04-27T08:17:42.264Z,100172.87
2023-04-27T08:21:58.692Z,100168.03
2023-04-27T08:26:16.118Z,100169.16
2023-04-27T08:30:32.600Z,100164.75
2023-04-27T08:34:48.899Z,100169.94
2023-04-27T08:39:08.166Z,100170.22
2023-04-27T08:43:24.431Z,100164.91
2023-04-27T08:47:43.846Z,100163.81
2023-04-27T08:52:00.848Z,100163.66
2023-04-27T08:56:18.049Z,100160.25
2023-04-27T09:00:41.876Z,100161.22
2023-04-27T09:04:58.385Z,100160.66
2023-04-27T09:09:24.100Z,100168.59
2023-04-27T09:13:42.231Z,100162.91
2023-04-27T09:17:59.021Z,100150.72
2023-04-27T09:22:15.838Z,100149.63
2023-04-27T09:26:32.131Z,100145.13
2023-04-27T09:31:02.543Z,100138.81
2023-04-27T09:35:29.990Z,100133.72
2023-04-27T09:39:46.675Z,100128.87
2023-04-27T09:44:03.542Z,100123.28
2023-04-27T09:48:21.345Z,100121.44
2023-04-27T09:52:37.684Z,100124.56
2023-04-27T09:57:03.755Z,100127.06
2023-04-27T10:01:58.105Z,100121.44
2023-04-27T10:06:42.187Z,100109.66
2023-04-27T10:10:58.520Z,100107.06
2023-04-27T10:15:16.997Z,100108.28
2023-04-27T10:19:33.292Z,100107.25
2023-04-27T10:23:51.457Z,100100.72
2023-04-27T10:28:10.965Z,100109.03
2023-04-27T10:32:27.496Z,100110.19
2023-04-27T10:36:44.177Z,100112.38
2023-04-27T10:41:02.667Z,100122.47
2023-04-27T10:45:31.183Z,100109.13
2023-04-27T10:49:48.488Z,100110.09
2023-04-27T10:54:05.375Z,100107.50
2023-04-27T10:58:26.705Z,100105.81
2023-04-27T11:02:48.423Z,100106.03
2023-04-27T11:07:05.174Z,100102.69
2023-04-27T11:11:22.973Z,100095.06
2023-04-27T11:15:50.725Z,100091.81
2023-04-27T11:20:09.042Z,100094.28
2023-04-27T11:24:25.361Z,100092.72
2023-04-27T11:28:42.752Z,100091.28
2023-04-27T11:32:59.060Z,100100.88
2023-04-27T11:37:25.862Z,100082.34
2023-04-27T11:41:46.444Z,100098.31
2023-04-27T11:46:07.285Z,100083.69
2023-04-27T11:50:25.962Z,100069.62
2023-04-27T11:54:53.451Z,100078.34
2023-04-27T11:59:27.809Z,100089.50
2023-04-27T12:03:44.252Z,100090.38
2023-04-27T12:08:00.732Z,100088.78
2023-04-27T12:12:22.565Z,100079.81
2023-04-27T12:16:39.170Z,100072.69
2023-04-27T12:20:55.457Z,100075.50
2023-04-27T12:25:11.803Z,100072.66
2023-04-27T12:29:28.243Z,100087.13
2023-04-27T12:33:44.643Z,100073.81
2023-04-27T12:38:01.405Z,100064.84
2023-04-27T12:42:19.796Z,100071.69
2023-04-27T12:46:36.079Z,100057.53
2023-04-27T12:50:52.593Z,100047.53
2023-04-27T12:55:18.078Z,100052.56
2023-04-27T12:59:42.242Z,100053.78
2023-04-27T13:04:03.368Z,100055.84
2023-04-27T13:08:20.211Z,100052.47
2023-04-27T13:12:36.578Z,100055.72
2023-04-27T13:16:52.836Z,100053.44
2023-04-27T13:21:09.313Z,100046.28
2023-04-27T13:25:25.705Z,100051.41
2023-04-27T13:29:42.758Z,100045.78
2023-04-27T13:33:59.117Z,100038.53
2023-04-27T13:38:15.408Z,100051.25
2023-04-27T13:42:31.666Z,100054.13
2023-04-27T13:46:47.981Z,100053.22
2023-04-27T13:51:04.348Z,100053.87
2023-04-27T13:55:20.703Z,100044.94
2023-04-27T13:59:37.063Z,100052.56
2023-04-27T14:03:53.553Z,100064.78
2023-04-27T14:08:10.354Z,100056.53
2023-04-27T14:12:26.723Z,100053.22
2023-04-27T14:16:43.011Z,100064.16
2023-04-27T14:20:59.464Z,100063.72
2023-04-27T14:25:15.748Z,100062.91
2023-04-27T14:29:32.162Z,100066.31
2023-04-27T14:33:48.419Z,100066.31
2023-04-27T14:38:05.062Z,100069.25
2023-04-27T14:42:21.388Z,100070.06
2023-04-27T14:46:38.013Z,100070.06
2023-04-27T14:50:54.315Z,100057.72
2023-04-27T14:55:11.735Z,100072.25
2023-04-27T14:59:28.074Z,100060.31
2023-04-27T15:03:44.521Z,100072.06
2023-04-27T15:08:01.793Z,100085.63
2023-04-27T15:12:18.087Z,100074.87
2023-04-27T15:16:34.386Z,100075.25
2023-04-27T15:20:55.188Z,100069.91
2023-04-27T15:25:11.588Z,100065.81
2023-04-27T15:29:27.930Z,100065.53
2023-04-27T15:33:44.212Z,100060.63
2023-04-27T15:38:01.042Z,100061.75
2023-04-27T15:42:17.309Z,100064.06
2023-04-27T15:46:33.707Z,100060.59
2023-04-27T15:50:49.989Z,100068.88
2023-04-27T15:55:06.970Z,100056.03
2023-04-27T15:59:23.220Z,100063.19
2023-04-27T16:03:39.507Z,100058.19
2023-04-27T16:07:55.916Z,100050.72
2023-04-27T16:12:12.180Z,100055.47
2023-04-27T16:16:28.822Z,100062.97
2023-04-27T16:20:45.185Z,100073.16
2023-04-27T16:25:01.705Z,100081.59
2023-04-27T16:29:17.938Z,100075.91
2023-04-27T16:33:34.223Z,100077.59
2023-04-27T16:37:51.342Z,100080.56
2023-04-27T16:42:07.683Z,100084.56
2023-04-27T16:46:24.127Z,100090.12
2023-04-27T16:50:41.257Z,100080.06
2023-04-27T16:54:57.990Z,100085.28
2023-04-27T16:59:14.587Z,100081.72
2023-04-27T17:03:31.239Z,100073.91
2023-04-27T17:07:47.665Z,100070.53
2023-04-27T17:12:08.513Z,100088.34
2023-04-27T17:16:27.243Z,100082.44
2023-04-27T17:20:43.738Z,100092.91
2023-04-27T17:25:00.182Z,100101.91
2023-04-27T17:29:16.584Z,100104.19
2023-04-27T17:33:32.927Z,100106.84
2023-04-27T17:37:49.190Z,100105.53
2023-04-27T17:42:07.093Z,100107.63
2023-04-27T17:46:23.431Z,100112.03
2023-04-27T17:50:41.176Z,100116.13
2023-04-27T17:54:57.841Z,100128.87
2023-04-27T17:59:14.477Z,100125.91
2023-04-27T18:03:31.790Z,100127.38
2023-04-27T18:07:50.270Z,100136.13
2023-04-27T18:12:11.318Z,100141.63
2023-04-27T18:16:27.916Z,100141.22
2023-04-27T18:20:45.131Z,100149.97
2023-04-27T18:25:01.514Z,100157.78
2023-04-27T18:29:17.855Z,100155.19
2023-04-27T18:33:34.195Z,100173.94
2023-04-27T18:37:50.508Z,100180.03
2023-04-27T18:42:06.759Z,100185.09
2023-04-27T18:46:23.088Z,100183.19
2023-04-27T18:50:40.037Z,100187.09
2023-04-27T18:54:56.423Z,100193.78
2023-04-27T18:59:12.954Z,100197.09
2023-04-27T19:03:29.588Z,100208.16
2023-04-27T19:07:46.141Z,100204.56
2023-04-27T19:12:03.739Z,100201.88
2023-04-27T19:16:20.394Z,100207.69
2023-04-27T19:20:36.935Z,100208.47
2023-04-27T19:24:53.283Z,100217.53
2023-04-27T19:29:09.540Z,100221.38
2023-04-27T19:33:26.134Z,100222.72
2023-04-27T19:37:42.538Z,100236.34
2023-04-27T19:41:59.024Z,100227.00
2023-04-27T19:46:15.461Z,100227.00
2023-04-27T19:50:31.870Z,100232.44
2023-04-27T19:54:55.002Z,100229.28
2023-04-27T19:59:11.233Z,100228.75
2023-04-27T20:03:27.746Z,100234.31
2023-04-27T20:07:44.172Z,100238.66
2023-04-27T20:12:00.470Z,100237.09
2023-04-27T20:16:18.641Z,100234.97
2023-04-27T20:20:35.850Z,100240.34
2023-04-27T20:24:52.131Z,100247.94
2023-04-27T20:29:08.996Z,100246.97
2023-04-27T20:33:25.291Z,100247.59
2023-04-27T20:37:43.952Z,100250.41
2023-04-27T20:42:00.444Z,100252.44
2023-04-27T20:46:16.758Z,100257.63
2023-04-27T20:50:33.066Z,100258.81
2023-04-27T20:54:49.347Z,100259.66
2023-04-27T20:59:07.204Z,100263.53
2023-04-27T21:03:24.370Z,100260.94
2023-04-27T21:07:40.716Z,100268.44
2023-04-27T21:11:57.011Z,100272.88
2023-04-27T21:16:13.286Z,100277.16
2023-04-27T21:20:29.626Z,100270.59
2023-04-27T21:24:46.459Z,100270.38
2023-04-27T21:29:05.859Z,100277.87
2023-04-27T21:33:22.701Z,100269.81
2023-04-27T21:37:39.038Z,100281.34
2023-04-27T21:41:55.361Z,100282.31
2023-04-27T21:46:11.816Z,100286.28
2023-04-27T21:50:28.136Z,100287.94
2023-04-27T21:54:44.443Z,100296.03
2023-04-27T21:59:00.718Z,100293.00
2023-04-27T22:03:17.068Z,100294.13
2023-04-27T22:07:33.416Z,100288.34
2023-04-27T22:11:49.732Z,100296.31
2023-04-27T22:16:06.267Z,100291.94
2023-04-27T22:20:23.729Z,100299.91
2023-04-27T22:24:39.982Z,100296.19
2023-04-27T22:28:56.279Z,100304.87
2023-04-27T22:33:12.548Z,100310.22
2023-04-27T22:37:29.780Z,100300.97
2023-04-27T22:41:46.488Z,100304.94
2023-04-27T22:46:02.796Z,100312.97
2023-04-27T22:50:19.145Z,100327.69
2023-04-27T22:54:35.413Z,100322.41
2023-04-27T22:58:52.052Z,100327.34
2023-04-27T23:03:08.600Z,100327.84
2023-04-27T23:07:25.548Z,100332.66
2023-04-27T23:11:42.320Z,100328.22
2023-04-27T23:15:58.594Z,100331.75
2023-04-27T23:20:27.154Z,100331.25
2023-04-27T23:24:44.727Z,100325.63
2023-04-27T23:29:01.155Z,100327.28
2023-04-27T23:33:17.357Z,100326.50
2023-04-27T23:37:33.791Z,100330.28
2023-04-27T23:41:50.061Z,100317.28
2023-04-27T23:46:06.393Z,100316.41
2023-04-27T23:50:22.640Z,100313.84
2023-04-27T23:54:38.989Z,100315.94
2023-04-27T23:58:55.298Z,100313.31
